sensor_id;sensor_type;location;lat;lon;timestamp;temperature;humidity
40291;DHT22;26000;48.304;13.626;2022-10-18T00:01:41;11.20;99.90
40291;DHT22;26000;48.304;13.626;2022-10-18T00:04:06;11.20;99.90
40291;DHT22;26000;48.304;13.626;2022-10-18T00:06:32;11.20;99.90
40291;DHT22;26000;48.304;13.626;2022-10-18T00:08:57;11.30;99.90
40291;DHT22;26000;48.304;13.626;2022-10-18T00:11:23;11.20;99.90
40291;DHT22;26000;48.304;13.626;2022-10-18T00:13:49;11.10;99.90
40291;DHT22;26000;48.304;13.626;2022-10-18T00:16:16;11.00;99.90
40291;DHT22;26000;48.304;13.626;2022-10-18T00:18:42;10.90;99.90
40291;DHT22;26000;48.304;13.626;2022-10-18T00:21:13;10.90;99.90
40291;DHT22;26000;48.304;13.626;2022-10-18T00:23:39;10.90;99.90
40291;DHT22;26000;48.304;13.626;2022-10-18T00:26:10;11.00;99.90
40291;DHT22;26000;48.304;13.626;2022-10-18T00:28:37;11.00;99.90
40291;DHT22;26000;48.304;13.626;2022-10-18T00:31:16;11.00;99.90
40291;DHT22;26000;48.304;13.626;2022-10-18T00:33:45;11.00;99.90
40291;DHT22;26000;48.304;13.626;2022-10-18T00:36:12;11.10;99.90
40291;DHT22;26000;48.304;13.626;2022-10-18T00:38:37;11.10;99.90
40291;DHT22;26000;48.304;13.626;2022-10-18T00:41:05;11.10;99.90
40291;DHT22;26000;48.304;13.626;2022-10-18T00:43:31;11.20;99.90
40291;DHT22;26000;48.304;13.626;2022-10-18T00:45:56;11.10;99.90
40291;DHT22;26000;48.304;13.626;2022-10-18T00:48:22;11.00;99.90
40291;DHT22;26000;48.304;13.626;2022-10-18T00:50:50;11.00;99.90
40291;DHT22;26000;48.304;13.626;2022-10-18T00:53:19;11.10;99.90
40291;DHT22;26000;48.304;13.626;2022-10-18T00:55:45;11.10;99.90
40291;DHT22;26000;48.304;13.626;2022-10-18T00:58:13;11.00;99.90
40291;DHT22;26000;48.304;13.626;2022-10-18T01:00:40;11.00;99.90
40291;DHT22;26000;48.304;13.626;2022-10-18T01:03:07;11.00;99.90
40291;DHT22;26000;48.304;13.626;2022-10-18T01:05:37;10.90;99.90
40291;DHT22;26000;48.304;13.626;2022-10-18T01:08:27;10.90;99.90
40291;DHT22;26000;48.304;13.626;2022-10-18T01:18:51;11.10;99.90
40291;DHT22;26000;48.304;13.626;2022-10-18T01:21:43;11.10;99.90
40291;DHT22;26000;48.304;13.626;2022-10-18T01:24:21;11.10;99.90
40291;DHT22;26000;48.304;13.626;2022-10-18T01:30:21;11.20;99.90
40291;DHT22;26000;48.304;13.626;2022-10-18T01:32:50;11.30;99.90
40291;DHT22;26000;48.304;13.626;2022-10-18T01:35:25;11.40;99.90
40291;DHT22;26000;48.304;13.626;2022-10-18T01:37:51;11.40;99.90
40291;DHT22;26000;48.304;13.626;2022-10-18T01:40:21;11.40;99.90
40291;DHT22;26000;48.304;13.626;2022-10-18T01:42:49;11.40;99.90
40291;DHT22;26000;48.304;13.626;2022-10-18T01:45:16;11.40;99.90
40291;DHT22;26000;48.304;13.626;2022-10-18T01:47:43;11.40;99.90
40291;DHT22;26000;48.304;13.626;2022-10-18T01:50:10;11.40;99.90
40291;DHT22;26000;48.304;13.626;2022-10-18T01:52:49;11.50;99.90
40291;DHT22;26000;48.304;13.626;2022-10-18T01:55:15;11.50;99.90
40291;DHT22;26000;48.304;13.626;2022-10-18T01:57:57;11.60;99.90
40291;DHT22;26000;48.304;13.626;2022-10-18T02:00:47;11.70;99.90
40291;DHT22;26000;48.304;13.626;2022-10-18T02:03:22;11.70;99.90
40291;DHT22;26000;48.304;13.626;2022-10-18T02:06:08;11.60;99.90
40291;DHT22;26000;48.304;13.626;2022-10-18T02:08:43;11.60;99.90
40291;DHT22;26000;48.304;13.626;2022-10-18T02:11:13;11.50;99.90
40291;DHT22;26000;48.304;13.626;2022-10-18T02:13:46;11.50;99.90
40291;DHT22;26000;48.304;13.626;2022-10-18T02:16:16;11.60;99.90
40291;DHT22;26000;48.304;13.626;2022-10-18T02:18:56;11.50;99.90
40291;DHT22;26000;48.304;13.626;2022-10-18T02:21:24;11.50;99.90
40291;DHT22;26000;48.304;13.626;2022-10-18T02:23:50;11.60;99.90
40291;DHT22;26000;48.304;13.626;2022-10-18T02:26:17;11.50;99.90
40291;DHT22;26000;48.304;13.626;2022-10-18T02:28:43;11.60;99.90
40291;DHT22;26000;48.304;13.626;2022-10-18T02:31:17;11.50;99.90
40291;DHT22;26000;48.304;13.626;2022-10-18T02:33:52;11.40;99.90
40291;DHT22;26000;48.304;13.626;2022-10-18T02:36:26;11.50;99.90
40291;DHT22;26000;48.304;13.626;2022-10-18T02:38:53;11.50;99.90
40291;DHT22;26000;48.304;13.626;2022-10-18T02:41:26;11.40;99.90
40291;DHT22;26000;48.304;13.626;2022-10-18T02:43:52;11.40;99.90
40291;DHT22;26000;48.304;13.626;2022-10-18T02:46:19;11.50;99.90
40291;DHT22;26000;48.304;13.626;2022-10-18T02:48:45;11.40;99.90
40291;DHT22;26000;48.304;13.626;2022-10-18T02:51:11;11.50;99.90
40291;DHT22;26000;48.304;13.626;2022-10-18T02:53:36;11.40;99.90
40291;DHT22;26000;48.304;13.626;2022-10-18T02:56:02;11.40;99.90
40291;DHT22;26000;48.304;13.626;2022-10-18T02:58:28;11.40;99.90
40291;DHT22;26000;48.304;13.626;2022-10-18T03:00:54;11.30;99.90
40291;DHT22;26000;48.304;13.626;2022-10-18T03:03:20;11.30;99.90
40291;DHT22;26000;48.304;13.626;2022-10-18T03:05:48;11.30;99.90
40291;DHT22;26000;48.304;13.626;2022-10-18T03:08:14;11.30;99.90
40291;DHT22;26000;48.304;13.626;2022-10-18T03:10:42;11.20;99.90
40291;DHT22;26000;48.304;13.626;2022-10-18T03:13:08;11.20;99.90
40291;DHT22;26000;48.304;13.626;2022-10-18T03:15:34;11.20;99.90
40291;DHT22;26000;48.304;13.626;2022-10-18T03:17:59;11.20;99.90
40291;DHT22;26000;48.304;13.626;2022-10-18T03:20:25;11.20;99.90
40291;DHT22;26000;48.304;13.626;2022-10-18T03:22:51;11.20;99.90
40291;DHT22;26000;48.304;13.626;2022-10-18T03:25:16;11.10;99.90
40291;DHT22;26000;48.304;13.626;2022-10-18T03:27:42;11.10;99.90
40291;DHT22;26000;48.304;13.626;2022-10-18T03:30:08;11.10;99.90
40291;DHT22;26000;48.304;13.626;2022-10-18T03:32:36;11.10;99.90
40291;DHT22;26000;48.304;13.626;2022-10-18T03:35:03;11.10;99.90
40291;DHT22;26000;48.304;13.626;2022-10-18T03:37:29;11.20;99.90
40291;DHT22;26000;48.304;13.626;2022-10-18T03:39:55;11.20;99.90
40291;DHT22;26000;48.304;13.626;2022-10-18T03:42:21;11.10;99.90
40291;DHT22;26000;48.304;13.626;2022-10-18T03:44:46;11.00;99.90
40291;DHT22;26000;48.304;13.626;2022-10-18T03:47:12;11.00;99.90
40291;DHT22;26000;48.304;13.626;2022-10-18T03:49:37;11.00;99.90
40291;DHT22;26000;48.304;13.626;2022-10-18T03:52:03;11.00;99.90
40291;DHT22;26000;48.304;13.626;2022-10-18T03:54:29;11.00;99.90
40291;DHT22;26000;48.304;13.626;2022-10-18T03:56:54;11.10;99.90
40291;DHT22;26000;48.304;13.626;2022-10-18T03:59:20;11.00;99.90
40291;DHT22;26000;48.304;13.626;2022-10-18T04:01:47;11.00;99.90
40291;DHT22;26000;48.304;13.626;2022-10-18T04:04:12;11.00;99.90
40291;DHT22;26000;48.304;13.626;2022-10-18T04:06:38;11.00;99.90
40291;DHT22;26000;48.304;13.626;2022-10-18T04:09:03;11.10;99.90
40291;DHT22;26000;48.304;13.626;2022-10-18T04:11:29;11.10;99.90
40291;DHT22;26000;48.304;13.626;2022-10-18T04:13:55;11.00;99.90
40291;DHT22;26000;48.304;13.626;2022-10-18T04:16:20;11.00;99.90
40291;DHT22;26000;48.304;13.626;2022-10-18T04:18:46;11.10;99.90
40291;DHT22;26000;48.304;13.626;2022-10-18T04:21:12;11.10;99.90
40291;DHT22;26000;48.304;13.626;2022-10-18T04:23:37;11.10;99.90
40291;DHT22;26000;48.304;13.626;2022-10-18T04:26:03;11.10;99.90
40291;DHT22;26000;48.304;13.626;2022-10-18T04:28:28;11.10;99.90
40291;DHT22;26000;48.304;13.626;2022-10-18T04:30:54;11.10;99.90
40291;DHT22;26000;48.304;13.626;2022-10-18T04:33:20;11.10;99.90
40291;DHT22;26000;48.304;13.626;2022-10-18T04:35:46;11.20;99.90
40291;DHT22;26000;48.304;13.626;2022-10-18T04:38:12;11.10;99.90
40291;DHT22;26000;48.304;13.626;2022-10-18T04:40:39;11.10;99.90
40291;DHT22;26000;48.304;13.626;2022-10-18T04:43:04;11.00;99.90
40291;DHT22;26000;48.304;13.626;2022-10-18T04:45:30;11.00;99.90
40291;DHT22;26000;48.304;13.626;2022-10-18T04:47:56;11.00;99.90
40291;DHT22;26000;48.304;13.626;2022-10-18T04:50:21;11.00;99.90
40291;DHT22;26000;48.304;13.626;2022-10-18T04:52:47;11.00;99.90
40291;DHT22;26000;48.304;13.626;2022-10-18T04:55:12;11.00;99.90
40291;DHT22;26000;48.304;13.626;2022-10-18T04:57:38;11.00;99.90
40291;DHT22;26000;48.304;13.626;2022-10-18T05:00:04;11.00;99.90
40291;DHT22;26000;48.304;13.626;2022-10-18T05:02:30;11.00;99.90
40291;DHT22;26000;48.304;13.626;2022-10-18T05:04:55;11.10;99.90
40291;DHT22;26000;48.304;13.626;2022-10-18T05:07:21;11.00;99.90
40291;DHT22;26000;48.304;13.626;2022-10-18T05:09:46;11.10;99.90
40291;DHT22;26000;48.304;13.626;2022-10-18T05:12:12;11.10;99.90
40291;DHT22;26000;48.304;13.626;2022-10-18T05:14:38;11.00;99.90
40291;DHT22;26000;48.304;13.626;2022-10-18T05:17:03;10.90;99.90
40291;DHT22;26000;48.304;13.626;2022-10-18T05:19:29;11.00;99.90
40291;DHT22;26000;48.304;13.626;2022-10-18T05:21:54;10.90;99.90
40291;DHT22;26000;48.304;13.626;2022-10-18T05:24:20;10.90;99.90
40291;DHT22;26000;48.304;13.626;2022-10-18T05:26:46;11.00;99.90
40291;DHT22;26000;48.304;13.626;2022-10-18T05:29:11;10.90;99.90
40291;DHT22;26000;48.304;13.626;2022-10-18T05:31:37;10.90;99.90
40291;DHT22;26000;48.304;13.626;2022-10-18T05:34:03;11.00;99.90
40291;DHT22;26000;48.304;13.626;2022-10-18T05:36:28;11.00;99.90
40291;DHT22;26000;48.304;13.626;2022-10-18T05:38:54;11.00;99.90
40291;DHT22;26000;48.304;13.626;2022-10-18T05:41:20;11.10;99.90
40291;DHT22;26000;48.304;13.626;2022-10-18T05:43:45;11.10;99.90
40291;DHT22;26000;48.304;13.626;2022-10-18T05:46:11;11.00;99.90
40291;DHT22;26000;48.304;13.626;2022-10-18T05:48:37;11.00;99.90
40291;DHT22;26000;48.304;13.626;2022-10-18T05:51:03;11.10;99.90
40291;DHT22;26000;48.304;13.626;2022-10-18T05:53:29;11.00;99.90
40291;DHT22;26000;48.304;13.626;2022-10-18T05:55:58;11.00;99.90
40291;DHT22;26000;48.304;13.626;2022-10-18T05:58:23;11.00;99.90
40291;DHT22;26000;48.304;13.626;2022-10-18T06:00:49;11.10;99.90
40291;DHT22;26000;48.304;13.626;2022-10-18T06:03:16;11.20;99.90
40291;DHT22;26000;48.304;13.626;2022-10-18T06:05:42;11.10;99.90
40291;DHT22;26000;48.304;13.626;2022-10-18T06:08:08;11.00;99.90
40291;DHT22;26000;48.304;13.626;2022-10-18T06:10:33;10.90;99.90
40291;DHT22;26000;48.304;13.626;2022-10-18T06:12:59;10.90;99.90
40291;DHT22;26000;48.304;13.626;2022-10-18T06:15:25;11.00;99.90
40291;DHT22;26000;48.304;13.626;2022-10-18T06:17:51;11.00;99.90
40291;DHT22;26000;48.304;13.626;2022-10-18T06:20:16;11.00;99.90
40291;DHT22;26000;48.304;13.626;2022-10-18T06:22:42;11.00;99.90
40291;DHT22;26000;48.304;13.626;2022-10-18T06:25:08;11.00;99.90
40291;DHT22;26000;48.304;13.626;2022-10-18T06:27:34;11.10;99.90
40291;DHT22;26000;48.304;13.626;2022-10-18T06:29:59;11.10;99.90
40291;DHT22;26000;48.304;13.626;2022-10-18T06:32:25;11.20;99.90
40291;DHT22;26000;48.304;13.626;2022-10-18T06:34:50;11.20;99.90
40291;DHT22;26000;48.304;13.626;2022-10-18T06:37:16;11.10;99.90
40291;DHT22;26000;48.304;13.626;2022-10-18T06:39:42;11.10;99.90
40291;DHT22;26000;48.304;13.626;2022-10-18T06:42:07;11.20;99.90
40291;DHT22;26000;48.304;13.626;2022-10-18T06:44:33;11.20;99.90
40291;DHT22;26000;48.304;13.626;2022-10-18T06:46:59;11.20;99.90
40291;DHT22;26000;48.304;13.626;2022-10-18T06:49:24;11.30;99.90
40291;DHT22;26000;48.304;13.626;2022-10-18T06:51:52;11.50;99.90
40291;DHT22;26000;48.304;13.626;2022-10-18T06:54:17;11.50;99.90
40291;DHT22;26000;48.304;13.626;2022-10-18T06:56:43;11.60;99.90
40291;DHT22;26000;48.304;13.626;2022-10-18T06:59:09;11.60;99.90
40291;DHT22;26000;48.304;13.626;2022-10-18T07:01:34;11.60;99.90
40291;DHT22;26000;48.304;13.626;2022-10-18T07:04:00;11.60;99.90
40291;DHT22;26000;48.304;13.626;2022-10-18T07:06:26;11.60;99.90
40291;DHT22;26000;48.304;13.626;2022-10-18T07:08:52;11.60;99.90
40291;DHT22;26000;48.304;13.626;2022-10-18T07:11:23;11.60;99.90
40291;DHT22;26000;48.304;13.626;2022-10-18T07:13:49;11.60;99.90
40291;DHT22;26000;48.304;13.626;2022-10-18T07:16:17;11.70;99.90
40291;DHT22;26000;48.304;13.626;2022-10-18T07:18:45;11.70;99.90
40291;DHT22;26000;48.304;13.626;2022-10-18T07:21:13;11.70;99.90
40291;DHT22;26000;48.304;13.626;2022-10-18T07:23:41;11.70;99.90
40291;DHT22;26000;48.304;13.626;2022-10-18T07:26:31;11.70;99.90
40291;DHT22;26000;48.304;13.626;2022-10-18T07:29:05;11.80;99.90
40291;DHT22;26000;48.304;13.626;2022-10-18T07:31:32;11.80;99.90
40291;DHT22;26000;48.304;13.626;2022-10-18T07:33:57;11.80;99.90
40291;DHT22;26000;48.304;13.626;2022-10-18T07:36:24;11.90;99.90
40291;DHT22;26000;48.304;13.626;2022-10-18T07:38:53;12.00;99.90
40291;DHT22;26000;48.304;13.626;2022-10-18T07:41:19;12.00;99.90
40291;DHT22;26000;48.304;13.626;2022-10-18T07:43:47;12.10;99.90
40291;DHT22;26000;48.304;13.626;2022-10-18T07:46:14;12.20;99.90
40291;DHT22;26000;48.304;13.626;2022-10-18T07:48:40;12.20;99.90
40291;DHT22;26000;48.304;13.626;2022-10-18T07:51:06;12.10;99.90
40291;DHT22;26000;48.304;13.626;2022-10-18T07:53:32;12.10;99.90
40291;DHT22;26000;48.304;13.626;2022-10-18T07:56:00;12.30;99.90
40291;DHT22;26000;48.304;13.626;2022-10-18T07:58:26;12.30;99.90
40291;DHT22;26000;48.304;13.626;2022-10-18T08:00:52;12.40;99.90
40291;DHT22;26000;48.304;13.626;2022-10-18T08:03:18;12.40;99.90
40291;DHT22;26000;48.304;13.626;2022-10-18T08:05:51;12.40;99.90
40291;DHT22;26000;48.304;13.626;2022-10-18T08:08:17;12.50;99.90
40291;DHT22;26000;48.304;13.626;2022-10-18T08:10:42;12.60;99.90
40291;DHT22;26000;48.304;13.626;2022-10-18T08:13:08;12.60;99.90
40291;DHT22;26000;48.304;13.626;2022-10-18T08:15:33;12.70;99.90
40291;DHT22;26000;48.304;13.626;2022-10-18T08:17:59;12.80;99.90
40291;DHT22;26000;48.304;13.626;2022-10-18T08:20:25;12.80;99.90
40291;DHT22;26000;48.304;13.626;2022-10-18T08:22:50;12.90;99.90
40291;DHT22;26000;48.304;13.626;2022-10-18T08:25:16;12.90;99.90
40291;DHT22;26000;48.304;13.626;2022-10-18T08:27:42;13.00;99.90
40291;DHT22;26000;48.304;13.626;2022-10-18T08:30:08;13.00;99.90
40291;DHT22;26000;48.304;13.626;2022-10-18T08:32:34;13.00;99.90
40291;DHT22;26000;48.304;13.626;2022-10-18T08:35:00;12.90;99.90
40291;DHT22;26000;48.304;13.626;2022-10-18T08:37:25;13.00;99.90
40291;DHT22;26000;48.304;13.626;2022-10-18T08:39:51;13.10;99.90
40291;DHT22;26000;48.304;13.626;2022-10-18T08:44:50;13.20;99.90
40291;DHT22;26000;48.304;13.626;2022-10-18T08:47:24;13.30;99.90
40291;DHT22;26000;48.304;13.626;2022-10-18T08:50:02;13.40;99.90
40291;DHT22;26000;48.304;13.626;2022-10-18T08:57:33;13.40;99.90
40291;DHT22;26000;48.304;13.626;2022-10-18T08:59:58;13.40;99.90
40291;DHT22;26000;48.304;13.626;2022-10-18T09:08:23;13.70;99.90
40291;DHT22;26000;48.304;13.626;2022-10-18T09:16:46;14.30;99.90
40291;DHT22;26000;48.304;13.626;2022-10-18T09:21:52;14.60;99.90
40291;DHT22;26000;48.304;13.626;2022-10-18T09:27:04;14.80;99.90
40291;DHT22;26000;48.304;13.626;2022-10-18T09:34:56;15.10;99.90
40291;DHT22;26000;48.304;13.626;2022-10-18T09:37:25;15.10;99.90
40291;DHT22;26000;48.304;13.626;2022-10-18T09:40:00;15.20;99.90
40291;DHT22;26000;48.304;13.626;2022-10-18T09:42:36;15.30;99.90
40291;DHT22;26000;48.304;13.626;2022-10-18T09:47:57;15.40;99.90
40291;DHT22;26000;48.304;13.626;2022-10-18T09:50:41;15.50;99.90
40291;DHT22;26000;48.304;13.626;2022-10-18T09:53:16;15.60;99.90
40291;DHT22;26000;48.304;13.626;2022-10-18T09:58:23;16.10;99.90
40291;DHT22;26000;48.304;13.626;2022-10-18T10:00:51;16.30;99.90
40291;DHT22;26000;48.304;13.626;2022-10-18T10:03:17;16.40;99.90
40291;DHT22;26000;48.304;13.626;2022-10-18T10:05:43;16.40;99.90
40291;DHT22;26000;48.304;13.626;2022-10-18T10:08:10;16.40;99.90
40291;DHT22;26000;48.304;13.626;2022-10-18T10:10:39;16.50;99.90
40291;DHT22;26000;48.304;13.626;2022-10-18T10:13:27;16.60;99.90
40291;DHT22;26000;48.304;13.626;2022-10-18T10:15:59;16.70;99.90
40291;DHT22;26000;48.304;13.626;2022-10-18T10:18:30;16.80;99.90
40291;DHT22;26000;48.304;13.626;2022-10-18T10:20:59;16.80;99.90
40291;DHT22;26000;48.304;13.626;2022-10-18T10:23:31;16.70;99.90
40291;DHT22;26000;48.304;13.626;2022-10-18T10:26:01;16.70;99.90
40291;DHT22;26000;48.304;13.626;2022-10-18T10:28:34;16.90;99.90
40291;DHT22;26000;48.304;13.626;2022-10-18T10:36:22;16.90;99.90
40291;DHT22;26000;48.304;13.626;2022-10-18T10:39:11;17.00;99.90
40291;DHT22;26000;48.304;13.626;2022-10-18T10:41:39;17.10;99.90
40291;DHT22;26000;48.304;13.626;2022-10-18T10:44:21;17.20;99.90
40291;DHT22;26000;48.304;13.626;2022-10-18T10:46:48;17.30;99.90
40291;DHT22;26000;48.304;13.626;2022-10-18T10:49:22;17.20;99.90
40291;DHT22;26000;48.304;13.626;2022-10-18T10:51:57;17.20;99.90
40291;DHT22;26000;48.304;13.626;2022-10-18T10:54:25;17.10;99.90
40291;DHT22;26000;48.304;13.626;2022-10-18T10:57:06;17.10;99.90
40291;DHT22;26000;48.304;13.626;2022-10-18T10:59:45;17.10;99.90
40291;DHT22;26000;48.304;13.626;2022-10-18T11:04:44;17.10;99.90
40291;DHT22;26000;48.304;13.626;2022-10-18T11:15:37;17.80;99.90
40291;DHT22;26000;48.304;13.626;2022-10-18T11:20:57;17.80;99.90
40291;DHT22;26000;48.304;13.626;2022-10-18T11:23:30;17.80;99.90
40291;DHT22;26000;48.304;13.626;2022-10-18T11:28:44;17.90;99.90
40291;DHT22;26000;48.304;13.626;2022-10-18T11:34:29;18.00;99.90
40291;DHT22;26000;48.304;13.626;2022-10-18T11:39:37;18.10;99.90
40291;DHT22;26000;48.304;13.626;2022-10-18T11:42:18;18.00;99.90
40291;DHT22;26000;48.304;13.626;2022-10-18T11:44:54;18.00;99.90
40291;DHT22;26000;48.304;13.626;2022-10-18T11:47:28;18.10;99.90
40291;DHT22;26000;48.304;13.626;2022-10-18T11:50:32;18.10;99.90
40291;DHT22;26000;48.304;13.626;2022-10-18T11:53:54;18.40;99.90
40291;DHT22;26000;48.304;13.626;2022-10-18T11:55:56;18.40;99.90
40291;DHT22;26000;48.304;13.626;2022-10-18T11:58:37;18.30;99.90
40291;DHT22;26000;48.304;13.626;2022-10-18T12:04:16;18.10;99.90
40291;DHT22;26000;48.304;13.626;2022-10-18T12:06:44;18.00;99.90
40291;DHT22;26000;48.304;13.626;2022-10-18T12:09:31;18.00;99.90
40291;DHT22;26000;48.304;13.626;2022-10-18T12:12:06;18.00;99.90
40291;DHT22;26000;48.304;13.626;2022-10-18T12:14:45;17.90;99.90
40291;DHT22;26000;48.304;13.626;2022-10-18T12:17:40;18.00;99.90
40291;DHT22;26000;48.304;13.626;2022-10-18T12:20:54;17.90;99.90
40291;DHT22;26000;48.304;13.626;2022-10-18T12:25:41;17.90;99.90
40291;DHT22;26000;48.304;13.626;2022-10-18T12:33:45;18.00;99.90
40291;DHT22;26000;48.304;13.626;2022-10-18T12:38:59;17.90;99.90
40291;DHT22;26000;48.304;13.626;2022-10-18T12:41:28;17.90;99.90
40291;DHT22;26000;48.304;13.626;2022-10-18T12:44:05;17.90;99.90
40291;DHT22;26000;48.304;13.626;2022-10-18T12:46:55;17.90;99.90
40291;DHT22;26000;48.304;13.626;2022-10-18T12:51:57;18.10;99.90
40291;DHT22;26000;48.304;13.626;2022-10-18T12:54:38;18.20;99.90
40291;DHT22;26000;48.304;13.626;2022-10-18T12:57:21;18.30;99.90
40291;DHT22;26000;48.304;13.626;2022-10-18T12:59:47;18.30;99.90
40291;DHT22;26000;48.304;13.626;2022-10-18T13:02:23;18.40;99.90
40291;DHT22;26000;48.304;13.626;2022-10-18T13:04:49;18.40;99.90
40291;DHT22;26000;48.304;13.626;2022-10-18T13:07:21;18.40;99.90
40291;DHT22;26000;48.304;13.626;2022-10-18T13:18:52;18.50;99.90
40291;DHT22;26000;48.304;13.626;2022-10-18T13:35:48;18.60;99.90
40291;DHT22;26000;48.304;13.626;2022-10-18T13:41:02;18.50;99.90
40291;DHT22;26000;48.304;13.626;2022-10-18T14:00:07;19.00;99.90
40291;DHT22;26000;48.304;13.626;2022-10-18T14:02:47;19.00;99.90
40291;DHT22;26000;48.304;13.626;2022-10-18T14:13:46;19.00;99.90
40291;DHT22;26000;48.304;13.626;2022-10-18T14:19:13;19.00;99.90
40291;DHT22;26000;48.304;13.626;2022-10-18T14:21:48;18.90;99.90
40291;DHT22;26000;48.304;13.626;2022-10-18T14:24:21;18.90;99.90
40291;DHT22;26000;48.304;13.626;2022-10-18T14:27:17;18.90;99.90
40291;DHT22;26000;48.304;13.626;2022-10-18T14:29:43;18.80;99.90
40291;DHT22;26000;48.304;13.626;2022-10-18T14:32:10;18.80;99.90
40291;DHT22;26000;48.304;13.626;2022-10-18T14:34:43;18.70;99.90
40291;DHT22;26000;48.304;13.626;2022-10-18T14:37:27;18.70;99.90
40291;DHT22;26000;48.304;13.626;2022-10-18T14:39:53;18.70;99.90
40291;DHT22;26000;48.304;13.626;2022-10-18T14:42:24;18.60;99.90
40291;DHT22;26000;48.304;13.626;2022-10-18T14:44:50;18.60;99.90
40291;DHT22;26000;48.304;13.626;2022-10-18T14:47:26;18.50;99.90
40291;DHT22;26000;48.304;13.626;2022-10-18T14:49:53;18.40;99.90
40291;DHT22;26000;48.304;13.626;2022-10-18T14:52:32;18.40;99.90
40291;DHT22;26000;48.304;13.626;2022-10-18T14:54:59;18.30;99.90
40291;DHT22;26000;48.304;13.626;2022-10-18T14:57:36;18.30;99.90
40291;DHT22;26000;48.304;13.626;2022-10-18T15:00:06;18.20;99.90
40291;DHT22;26000;48.304;13.626;2022-10-18T15:02:34;18.30;99.90
40291;DHT22;26000;48.304;13.626;2022-10-18T15:07:44;18.20;99.90
40291;DHT22;26000;48.304;13.626;2022-10-18T15:10:21;18.10;99.90
40291;DHT22;26000;48.304;13.626;2022-10-18T15:12:48;18.10;99.90
40291;DHT22;26000;48.304;13.626;2022-10-18T15:15:21;18.00;99.90
40291;DHT22;26000;48.304;13.626;2022-10-18T15:17:50;18.00;99.90
40291;DHT22;26000;48.304;13.626;2022-10-18T15:20:18;17.90;99.90
40291;DHT22;26000;48.304;13.626;2022-10-18T15:22:43;17.90;99.90
40291;DHT22;26000;48.304;13.626;2022-10-18T15:27:46;17.70;99.90
40291;DHT22;26000;48.304;13.626;2022-10-18T15:32:56;17.60;99.90
40291;DHT22;26000;48.304;13.626;2022-10-18T15:35:30;17.50;99.90
40291;DHT22;26000;48.304;13.626;2022-10-18T15:37:58;17.50;99.90
40291;DHT22;26000;48.304;13.626;2022-10-18T15:42:54;17.30;99.90
40291;DHT22;26000;48.304;13.626;2022-10-18T15:53:23;17.10;99.90
40291;DHT22;26000;48.304;13.626;2022-10-18T15:56:04;17.00;99.90
40291;DHT22;26000;48.304;13.626;2022-10-18T15:58:43;17.00;99.90
40291;DHT22;26000;48.304;13.626;2022-10-18T16:01:41;16.90;99.90
40291;DHT22;26000;48.304;13.626;2022-10-18T16:04:18;16.80;99.90
40291;DHT22;26000;48.304;13.626;2022-10-18T16:06:44;16.80;99.90
40291;DHT22;26000;48.304;13.626;2022-10-18T16:09:21;16.70;99.90
40291;DHT22;26000;48.304;13.626;2022-10-18T16:11:47;16.60;99.90
40291;DHT22;26000;48.304;13.626;2022-10-18T16:14:16;16.60;99.90
40291;DHT22;26000;48.304;13.626;2022-10-18T16:16:42;16.50;99.90
40291;DHT22;26000;48.304;13.626;2022-10-18T16:19:11;16.50;99.90
40291;DHT22;26000;48.304;13.626;2022-10-18T16:21:38;16.40;99.90
40291;DHT22;26000;48.304;13.626;2022-10-18T16:24:04;16.40;99.90
40291;DHT22;26000;48.304;13.626;2022-10-18T16:26:31;16.30;99.90
40291;DHT22;26000;48.304;13.626;2022-10-18T16:28:57;16.30;99.90
40291;DHT22;26000;48.304;13.626;2022-10-18T16:31:26;16.30;99.90
40291;DHT22;26000;48.304;13.626;2022-10-18T16:33:53;16.30;99.90
40291;DHT22;26000;48.304;13.626;2022-10-18T16:36:24;16.30;99.90
40291;DHT22;26000;48.304;13.626;2022-10-18T16:38:50;16.30;99.90
40291;DHT22;26000;48.304;13.626;2022-10-18T16:41:16;16.30;99.90
40291;DHT22;26000;48.304;13.626;2022-10-18T16:43:43;16.20;99.90
40291;DHT22;26000;48.304;13.626;2022-10-18T16:46:18;16.20;99.90
40291;DHT22;26000;48.304;13.626;2022-10-18T16:48:45;16.20;99.90
40291;DHT22;26000;48.304;13.626;2022-10-18T16:51:11;16.20;99.90
40291;DHT22;26000;48.304;13.626;2022-10-18T16:53:37;16.20;99.90
40291;DHT22;26000;48.304;13.626;2022-10-18T16:56:04;16.20;99.90
40291;DHT22;26000;48.304;13.626;2022-10-18T16:58:31;16.20;99.90
40291;DHT22;26000;48.304;13.626;2022-10-18T17:00:57;16.20;99.90
40291;DHT22;26000;48.304;13.626;2022-10-18T17:03:24;16.20;99.90
40291;DHT22;26000;48.304;13.626;2022-10-18T17:05:50;16.20;99.90
40291;DHT22;26000;48.304;13.626;2022-10-18T17:08:24;16.20;99.90
40291;DHT22;26000;48.304;13.626;2022-10-18T17:10:52;16.10;99.90
40291;DHT22;26000;48.304;13.626;2022-10-18T17:13:18;16.10;99.90
40291;DHT22;26000;48.304;13.626;2022-10-18T17:15:44;16.20;99.90
40291;DHT22;26000;48.304;13.626;2022-10-18T17:18:13;16.10;99.90
40291;DHT22;26000;48.304;13.626;2022-10-18T17:20:40;16.10;99.90
40291;DHT22;26000;48.304;13.626;2022-10-18T17:23:06;16.10;99.90
40291;DHT22;26000;48.304;13.626;2022-10-18T17:25:34;16.10;99.90
40291;DHT22;26000;48.304;13.626;2022-10-18T17:28:00;16.10;99.90
40291;DHT22;26000;48.304;13.626;2022-10-18T17:30:25;16.10;99.90
40291;DHT22;26000;48.304;13.626;2022-10-18T17:32:51;16.10;99.90
40291;DHT22;26000;48.304;13.626;2022-10-18T17:35:16;16.10;99.90
40291;DHT22;26000;48.304;13.626;2022-10-18T17:37:46;16.10;99.90
40291;DHT22;26000;48.304;13.626;2022-10-18T17:40:13;16.10;99.90
40291;DHT22;26000;48.304;13.626;2022-10-18T17:42:38;16.10;99.90
40291;DHT22;26000;48.304;13.626;2022-10-18T17:45:04;16.00;99.90
40291;DHT22;26000;48.304;13.626;2022-10-18T17:47:30;16.00;99.90
40291;DHT22;26000;48.304;13.626;2022-10-18T17:49:55;16.00;99.90
40291;DHT22;26000;48.304;13.626;2022-10-18T17:52:21;16.00;99.90
40291;DHT22;26000;48.304;13.626;2022-10-18T17:54:47;16.00;99.90
40291;DHT22;26000;48.304;13.626;2022-10-18T17:57:12;16.00;99.90
40291;DHT22;26000;48.304;13.626;2022-10-18T17:59:38;16.00;99.90
40291;DHT22;26000;48.304;13.626;2022-10-18T18:02:03;16.00;99.90
40291;DHT22;26000;48.304;13.626;2022-10-18T18:04:29;16.00;99.90
40291;DHT22;26000;48.304;13.626;2022-10-18T18:06:55;16.00;99.90
40291;DHT22;26000;48.304;13.626;2022-10-18T18:09:22;16.00;99.90
40291;DHT22;26000;48.304;13.626;2022-10-18T18:11:47;16.00;99.90